sensor_id;sensor_type;location;lat;lon;timestamp;P1;durP1;ratioP1;P2;durP2;ratioP2
2338;SDS011;1180;51.438;6.978;2023-03-26T00:00:43;9.20;;;2.90;;
2338;SDS011;1180;51.438;6.978;2023-03-26T00:03:10;10.63;;;3.13;;
2338;SDS011;1180;51.438;6.978;2023-03-26T00:05:39;10.87;;;3.00;;
2338;SDS011;1180;51.438;6.978;2023-03-26T00:08:05;6.03;;;2.80;;
2338;SDS011;1180;51.438;6.978;2023-03-26T00:10:35;11.23;;;2.90;;
2338;SDS011;1180;51.438;6.978;2023-03-26T00:13:02;8.40;;;2.50;;
2338;SDS011;1180;51.438;6.978;2023-03-26T00:15:29;13.90;;;3.17;;
2338;SDS011;1180;51.438;6.978;2023-03-26T00:17:54;10.40;;;3.40;;
2338;SDS011;1180;51.438;6.978;2023-03-26T00:20:20;7.77;;;2.73;;
2338;SDS011;1180;51.438;6.978;2023-03-26T00:22:46;11.73;;;2.70;;
2338;SDS011;1180;51.438;6.978;2023-03-26T00:25:11;8.10;;;2.40;;
2338;SDS011;1180;51.438;6.978;2023-03-26T00:27:37;11.00;;;3.93;;
2338;SDS011;1180;51.438;6.978;2023-03-26T00:30:03;10.93;;;2.70;;
2338;SDS011;1180;51.438;6.978;2023-03-26T00:32:29;8.60;;;3.20;;
2338;SDS011;1180;51.438;6.978;2023-03-26T00:34:58;11.53;;;3.40;;
2338;SDS011;1180;51.438;6.978;2023-03-26T00:37:24;13.00;;;3.40;;
2338;SDS011;1180;51.438;6.978;2023-03-26T00:39:54;15.27;;;3.50;;
2338;SDS011;1180;51.438;6.978;2023-03-26T00:42:26;12.03;;;4.03;;
2338;SDS011;1180;51.438;6.978;2023-03-26T00:44:52;13.77;;;3.63;;
2338;SDS011;1180;51.438;6.978;2023-03-26T00:47:25;13.33;;;3.60;;
2338;SDS011;1180;51.438;6.978;2023-03-26T00:49:51;19.67;;;4.30;;
2338;SDS011;1180;51.438;6.978;2023-03-26T00:52:18;10.27;;;3.83;;
2338;SDS011;1180;51.438;6.978;2023-03-26T00:54:44;18.50;;;4.10;;
2338;SDS011;1180;51.438;6.978;2023-03-26T00:57:11;11.50;;;3.00;;
2338;SDS011;1180;51.438;6.978;2023-03-26T00:59:37;14.20;;;4.30;;
2338;SDS011;1180;51.438;6.978;2023-03-26T01:02:03;16.60;;;4.00;;
2338;SDS011;1180;51.438;6.978;2023-03-26T01:04:30;22.77;;;4.97;;
2338;SDS011;1180;51.438;6.978;2023-03-26T01:07:00;8.77;;;3.40;;
2338;SDS011;1180;51.438;6.978;2023-03-26T01:09:30;17.93;;;4.07;;
2338;SDS011;1180;51.438;6.978;2023-03-26T01:11:59;16.80;;;4.43;;
2338;SDS011;1180;51.438;6.978;2023-03-26T01:14:26;11.43;;;3.27;;
2338;SDS011;1180;51.438;6.978;2023-03-26T01:16:56;11.50;;;3.80;;
2338;SDS011;1180;51.438;6.978;2023-03-26T01:22:15;9.27;;;3.10;;
2338;SDS011;1180;51.438;6.978;2023-03-26T01:24:44;18.00;;;4.97;;
2338;SDS011;1180;51.438;6.978;2023-03-26T01:27:20;14.30;;;4.00;;
2338;SDS011;1180;51.438;6.978;2023-03-26T01:35:56;17.47;;;3.73;;
2338;SDS011;1180;51.438;6.978;2023-03-26T01:38:41;10.63;;;3.93;;
2338;SDS011;1180;51.438;6.978;2023-03-26T01:43:46;15.10;;;4.83;;
2338;SDS011;1180;51.438;6.978;2023-03-26T01:46:14;15.60;;;3.00;;
2338;SDS011;1180;51.438;6.978;2023-03-26T01:48:42;10.77;;;3.83;;
2338;SDS011;1180;51.438;6.978;2023-03-26T01:51:09;18.53;;;3.80;;
2338;SDS011;1180;51.438;6.978;2023-03-26T01:53:38;14.60;;;3.73;;
2338;SDS011;1180;51.438;6.978;2023-03-26T01:56:18;17.73;;;3.87;;
2338;SDS011;1180;51.438;6.978;2023-03-26T01:58:49;13.80;;;3.17;;
2338;SDS011;1180;51.438;6.978;2023-03-26T02:01:44;19.23;;;5.17;;
2338;SDS011;1180;51.438;6.978;2023-03-26T02:04:37;13.13;;;4.27;;
2338;SDS011;1180;51.438;6.978;2023-03-26T02:07:09;16.50;;;4.00;;
2338;SDS011;1180;51.438;6.978;2023-03-26T02:09:59;16.23;;;3.60;;
2338;SDS011;1180;51.438;6.978;2023-03-26T02:12:30;16.33;;;3.77;;
2338;SDS011;1180;51.438;6.978;2023-03-26T02:15:00;16.07;;;4.10;;
2338;SDS011;1180;51.438;6.978;2023-03-26T02:17:26;10.97;;;3.27;;
2338;SDS011;1180;51.438;6.978;2023-03-26T02:19:54;21.60;;;7.03;;
2338;SDS011;1180;51.438;6.978;2023-03-26T02:22:20;17.93;;;4.27;;
2338;SDS011;1180;51.438;6.978;2023-03-26T02:24:46;7.13;;;2.87;;
2338;SDS011;1180;51.438;6.978;2023-03-26T02:27:12;18.20;;;3.70;;
2338;SDS011;1180;51.438;6.978;2023-03-26T02:29:39;15.37;;;3.80;;
2338;SDS011;1180;51.438;6.978;2023-03-26T02:32:05;15.80;;;3.90;;
2338;SDS011;1180;51.438;6.978;2023-03-26T02:34:32;17.67;;;3.80;;
2338;SDS011;1180;51.438;6.978;2023-03-26T02:36:57;12.17;;;3.70;;
2338;SDS011;1180;51.438;6.978;2023-03-26T02:39:23;18.23;;;4.83;;
2338;SDS011;1180;51.438;6.978;2023-03-26T02:41:50;22.33;;;4.80;;
2338;SDS011;1180;51.438;6.978;2023-03-26T02:44:15;14.10;;;3.93;;
2338;SDS011;1180;51.438;6.978;2023-03-26T02:46:40;16.57;;;4.43;;
2338;SDS011;1180;51.438;6.978;2023-03-26T02:49:06;11.33;;;4.80;;
2338;SDS011;1180;51.438;6.978;2023-03-26T02:51:32;9.57;;;4.30;;
2338;SDS011;1180;51.438;6.978;2023-03-26T02:53:59;19.77;;;4.17;;
2338;SDS011;1180;51.438;6.978;2023-03-26T02:56:25;14.47;;;4.37;;
2338;SDS011;1180;51.438;6.978;2023-03-26T02:58:50;18.50;;;4.80;;
2338;SDS011;1180;51.438;6.978;2023-03-26T03:01:15;17.00;;;4.10;;
2338;SDS011;1180;51.438;6.978;2023-03-26T03:03:42;18.93;;;4.23;;
2338;SDS011;1180;51.438;6.978;2023-03-26T03:06:07;13.83;;;4.73;;
2338;SDS011;1180;51.438;6.978;2023-03-26T03:08:33;12.43;;;4.30;;
2338;SDS011;1180;51.438;6.978;2023-03-26T03:10:59;9.57;;;4.10;;
2338;SDS011;1180;51.438;6.978;2023-03-26T03:13:38;15.77;;;3.63;;
2338;SDS011;1180;51.438;6.978;2023-03-26T03:16:03;21.07;;;5.17;;
2338;SDS011;1180;51.438;6.978;2023-03-26T03:18:29;18.53;;;4.40;;
2338;SDS011;1180;51.438;6.978;2023-03-26T03:20:54;13.83;;;4.53;;
2338;SDS011;1180;51.438;6.978;2023-03-26T03:23:22;12.13;;;4.37;;
2338;SDS011;1180;51.438;6.978;2023-03-26T03:25:47;11.30;;;4.27;;
2338;SDS011;1180;51.438;6.978;2023-03-26T03:28:14;18.90;;;4.37;;
2338;SDS011;1180;51.438;6.978;2023-03-26T03:30:42;20.87;;;3.93;;
2338;SDS011;1180;51.438;6.978;2023-03-26T03:33:07;18.60;;;5.03;;
2338;SDS011;1180;51.438;6.978;2023-03-26T03:35:33;12.27;;;4.30;;
2338;SDS011;1180;51.438;6.978;2023-03-26T03:37:59;14.43;;;3.90;;
2338;SDS011;1180;51.438;6.978;2023-03-26T03:40:24;12.40;;;3.57;;
2338;SDS011;1180;51.438;6.978;2023-03-26T03:42:50;15.57;;;3.63;;
2338;SDS011;1180;51.438;6.978;2023-03-26T03:45:16;11.83;;;4.20;;
2338;SDS011;1180;51.438;6.978;2023-03-26T03:47:41;14.33;;;3.53;;
2338;SDS011;1180;51.438;6.978;2023-03-26T03:50:07;15.20;;;3.97;;
2338;SDS011;1180;51.438;6.978;2023-03-26T03:52:33;23.30;;;4.27;;
2338;SDS011;1180;51.438;6.978;2023-03-26T03:54:59;15.13;;;3.70;;
2338;SDS011;1180;51.438;6.978;2023-03-26T03:57:25;9.93;;;3.60;;
2338;SDS011;1180;51.438;6.978;2023-03-26T03:59:51;13.13;;;3.60;;
2338;SDS011;1180;51.438;6.978;2023-03-26T04:02:16;11.97;;;3.97;;
2338;SDS011;1180;51.438;6.978;2023-03-26T04:04:53;8.50;;;4.20;;
2338;SDS011;1180;51.438;6.978;2023-03-26T04:07:21;10.30;;;3.60;;
2338;SDS011;1180;51.438;6.978;2023-03-26T04:09:47;16.57;;;3.73;;
2338;SDS011;1180;51.438;6.978;2023-03-26T04:12:12;9.73;;;2.90;;
2338;SDS011;1180;51.438;6.978;2023-03-26T04:14:38;19.23;;;5.40;;
2338;SDS011;1180;51.438;6.978;2023-03-26T04:17:03;9.00;;;2.70;;
2338;SDS011;1180;51.438;6.978;2023-03-26T04:19:29;12.33;;;3.93;;
2338;SDS011;1180;51.438;6.978;2023-03-26T04:21:54;14.00;;;3.50;;
2338;SDS011;1180;51.438;6.978;2023-03-26T04:24:20;7.80;;;2.97;;
2338;SDS011;1180;51.438;6.978;2023-03-26T04:26:46;11.67;;;3.43;;
2338;SDS011;1180;51.438;6.978;2023-03-26T04:29:14;11.67;;;3.30;;
2338;SDS011;1180;51.438;6.978;2023-03-26T04:31:40;15.73;;;3.30;;
2338;SDS011;1180;51.438;6.978;2023-03-26T04:34:08;18.23;;;4.23;;
2338;SDS011;1180;51.438;6.978;2023-03-26T04:36:42;8.30;;;3.53;;
2338;SDS011;1180;51.438;6.978;2023-03-26T04:39:10;12.97;;;3.80;;
2338;SDS011;1180;51.438;6.978;2023-03-26T04:41:37;12.00;;;3.33;;
2338;SDS011;1180;51.438;6.978;2023-03-26T04:44:03;20.60;;;4.10;;
2338;SDS011;1180;51.438;6.978;2023-03-26T04:46:28;7.97;;;2.23;;
2338;SDS011;1180;51.438;6.978;2023-03-26T04:48:57;9.50;;;3.47;;
2338;SDS011;1180;51.438;6.978;2023-03-26T04:51:25;8.80;;;3.13;;
2338;SDS011;1180;51.438;6.978;2023-03-26T04:53:53;9.20;;;3.47;;
2338;SDS011;1180;51.438;6.978;2023-03-26T04:59:05;15.77;;;3.63;;
2338;SDS011;1180;51.438;6.978;2023-03-26T05:01:32;9.40;;;3.67;;
2338;SDS011;1180;51.438;6.978;2023-03-26T05:04:01;9.50;;;2.80;;
2338;SDS011;1180;51.438;6.978;2023-03-26T05:06:27;12.73;;;3.27;;
2338;SDS011;1180;51.438;6.978;2023-03-26T05:08:54;14.80;;;5.13;;
2338;SDS011;1180;51.438;6.978;2023-03-26T05:11:19;6.33;;;2.70;;
2338;SDS011;1180;51.438;6.978;2023-03-26T05:13:45;19.03;;;3.80;;
2338;SDS011;1180;51.438;6.978;2023-03-26T05:16:11;12.30;;;3.13;;
2338;SDS011;1180;51.438;6.978;2023-03-26T05:18:36;10.17;;;3.00;;
2338;SDS011;1180;51.438;6.978;2023-03-26T05:21:02;9.63;;;2.60;;
2338;SDS011;1180;51.438;6.978;2023-03-26T05:23:28;11.43;;;3.20;;
2338;SDS011;1180;51.438;6.978;2023-03-26T05:25:54;13.70;;;3.23;;
2338;SDS011;1180;51.438;6.978;2023-03-26T05:28:19;9.90;;;2.90;;
2338;SDS011;1180;51.438;6.978;2023-03-26T05:30:48;13.27;;;3.30;;
2338;SDS011;1180;51.438;6.978;2023-03-26T05:33:13;12.20;;;3.70;;
2338;SDS011;1180;51.438;6.978;2023-03-26T05:35:40;11.33;;;3.27;;
2338;SDS011;1180;51.438;6.978;2023-03-26T05:38:05;8.57;;;2.87;;
2338;SDS011;1180;51.438;6.978;2023-03-26T05:40:31;15.70;;;4.33;;
2338;SDS011;1180;51.438;6.978;2023-03-26T05:42:56;8.10;;;3.37;;
2338;SDS011;1180;51.438;6.978;2023-03-26T05:45:21;6.93;;;2.10;;
2338;SDS011;1180;51.438;6.978;2023-03-26T05:47:47;4.70;;;2.43;;
2338;SDS011;1180;51.438;6.978;2023-03-26T05:50:14;10.67;;;3.87;;
2338;SDS011;1180;51.438;6.978;2023-03-26T05:52:39;7.30;;;3.30;;
2338;SDS011;1180;51.438;6.978;2023-03-26T05:55:05;6.63;;;3.17;;
2338;SDS011;1180;51.438;6.978;2023-03-26T05:57:32;12.87;;;3.33;;
2338;SDS011;1180;51.438;6.978;2023-03-26T05:59:59;9.13;;;2.70;;
2338;SDS011;1180;51.438;6.978;2023-03-26T06:02:25;15.03;;;3.67;;
2338;SDS011;1180;51.438;6.978;2023-03-26T06:04:50;15.70;;;3.57;;
2338;SDS011;1180;51.438;6.978;2023-03-26T06:07:16;11.77;;;3.13;;
2338;SDS011;1180;51.438;6.978;2023-03-26T06:09:42;9.80;;;2.97;;
2338;SDS011;1180;51.438;6.978;2023-03-26T06:12:08;6.67;;;3.20;;
2338;SDS011;1180;51.438;6.978;2023-03-26T06:14:35;10.50;;;3.47;;
2338;SDS011;1180;51.438;6.978;2023-03-26T06:17:00;9.30;;;3.23;;
2338;SDS011;1180;51.438;6.978;2023-03-26T06:19:26;9.77;;;3.00;;
2338;SDS011;1180;51.438;6.978;2023-03-26T06:21:51;14.77;;;2.90;;
2338;SDS011;1180;51.438;6.978;2023-03-26T06:24:17;9.50;;;4.07;;
2338;SDS011;1180;51.438;6.978;2023-03-26T06:26:43;6.70;;;3.20;;
2338;SDS011;1180;51.438;6.978;2023-03-26T06:29:10;10.40;;;3.30;;
2338;SDS011;1180;51.438;6.978;2023-03-26T06:31:35;9.93;;;3.10;;
2338;SDS011;1180;51.438;6.978;2023-03-26T06:34:01;10.50;;;2.90;;
2338;SDS011;1180;51.438;6.978;2023-03-26T06:36:26;13.93;;;3.53;;
2338;SDS011;1180;51.438;6.978;2023-03-26T06:38:51;14.23;;;3.53;;
2338;SDS011;1180;51.438;6.978;2023-03-26T06:41:17;14.70;;;3.00;;
2338;SDS011;1180;51.438;6.978;2023-03-26T06:43:42;6.30;;;2.20;;
2338;SDS011;1180;51.438;6.978;2023-03-26T06:46:08;10.87;;;3.13;;
2338;SDS011;1180;51.438;6.978;2023-03-26T06:48:34;6.50;;;2.80;;
2338;SDS011;1180;51.438;6.978;2023-03-26T06:50:59;13.37;;;2.90;;
2338;SDS011;1180;51.438;6.978;2023-03-26T06:53:25;7.93;;;2.40;;
2338;SDS011;1180;51.438;6.978;2023-03-26T06:55:51;9.20;;;2.50;;
2338;SDS011;1180;51.438;6.978;2023-03-26T06:58:18;11.37;;;2.80;;
2338;SDS011;1180;51.438;6.978;2023-03-26T07:00:43;10.60;;;3.30;;
2338;SDS011;1180;51.438;6.978;2023-03-26T07:03:09;14.73;;;3.67;;
2338;SDS011;1180;51.438;6.978;2023-03-26T07:05:35;9.37;;;3.50;;
2338;SDS011;1180;51.438;6.978;2023-03-26T07:08:01;9.10;;;3.67;;
2338;SDS011;1180;51.438;6.978;2023-03-26T07:10:27;11.03;;;3.13;;
2338;SDS011;1180;51.438;6.978;2023-03-26T07:12:52;12.23;;;3.57;;
2338;SDS011;1180;51.438;6.978;2023-03-26T07:15:17;10.60;;;2.97;;
2338;SDS011;1180;51.438;6.978;2023-03-26T07:17:43;9.07;;;3.43;;
2338;SDS011;1180;51.438;6.978;2023-03-26T07:20:08;9.50;;;3.90;;
2338;SDS011;1180;51.438;6.978;2023-03-26T07:22:34;9.50;;;3.03;;
2338;SDS011;1180;51.438;6.978;2023-03-26T07:25:00;11.17;;;3.57;;
2338;SDS011;1180;51.438;6.978;2023-03-26T07:27:35;14.50;;;3.07;;
2338;SDS011;1180;51.438;6.978;2023-03-26T07:35:23;14.20;;;2.97;;
2338;SDS011;1180;51.438;6.978;2023-03-26T07:38:01;7.03;;;3.47;;
2338;SDS011;1180;51.438;6.978;2023-03-26T07:46:35;6.23;;;3.27;;
2338;SDS011;1180;51.438;6.978;2023-03-26T07:49:01;9.07;;;3.00;;
2338;SDS011;1180;51.438;6.978;2023-03-26T07:51:29;10.30;;;3.67;;
2338;SDS011;1180;51.438;6.978;2023-03-26T07:53:55;13.50;;;3.70;;
2338;SDS011;1180;51.438;6.978;2023-03-26T08:21:12;12.80;;;3.63;;
2338;SDS011;1180;51.438;6.978;2023-03-26T08:29:03;8.10;;;4.50;;
2338;SDS011;1180;51.438;6.978;2023-03-26T08:31:40;9.93;;;4.30;;
2338;SDS011;1180;51.438;6.978;2023-03-26T08:34:09;13.03;;;3.90;;
2338;SDS011;1180;51.438;6.978;2023-03-26T08:36:37;7.87;;;2.53;;
2338;SDS011;1180;51.438;6.978;2023-03-26T08:39:03;12.63;;;3.30;;
2338;SDS011;1180;51.438;6.978;2023-03-26T08:49:55;10.20;;;3.57;;
2338;SDS011;1180;51.438;6.978;2023-03-26T08:53:04;5.23;;;2.97;;
2338;SDS011;1180;51.438;6.978;2023-03-26T09:01:34;10.97;;;3.50;;
2338;SDS011;1180;51.438;6.978;2023-03-26T09:04:15;9.00;;;2.97;;
2338;SDS011;1180;51.438;6.978;2023-03-26T09:34:20;7.80;;;2.70;;
2338;SDS011;1180;51.438;6.978;2023-03-26T09:47:50;4.43;;;2.70;;
2338;SDS011;1180;51.438;6.978;2023-03-26T09:56:21;3.87;;;1.90;;
2338;SDS011;1180;51.438;6.978;2023-03-26T10:04:34;4.00;;;1.33;;
2338;SDS011;1180;51.438;6.978;2023-03-26T10:10:22;4.63;;;1.73;;
2338;SDS011;1180;51.438;6.978;2023-03-26T10:24:38;3.53;;;1.40;;
2338;SDS011;1180;51.438;6.978;2023-03-26T10:27:15;2.70;;;1.17;;
2338;SDS011;1180;51.438;6.978;2023-03-26T10:43:55;1.20;;;0.87;;
2338;SDS011;1180;51.438;6.978;2023-03-26T10:51:58;4.90;;;1.13;;
2338;SDS011;1180;51.438;6.978;2023-03-26T10:57:05;4.00;;;0.97;;
2338;SDS011;1180;51.438;6.978;2023-03-26T10:59:43;1.63;;;0.90;;
2338;SDS011;1180;51.438;6.978;2023-03-26T11:02:21;1.67;;;1.20;;
2338;SDS011;1180;51.438;6.978;2023-03-26T11:10:10;1.47;;;1.03;;
2338;SDS011;1180;51.438;6.978;2023-03-26T11:12:52;1.10;;;0.77;;
2338;SDS011;1180;51.438;6.978;2023-03-26T11:15:45;1.97;;;0.77;;
2338;SDS011;1180;51.438;6.978;2023-03-26T11:21:16;1.30;;;0.97;;
2338;SDS011;1180;51.438;6.978;2023-03-26T11:37:31;2.07;;;0.90;;
2338;SDS011;1180;51.438;6.978;2023-03-26T11:39:59;1.97;;;0.80;;
2338;SDS011;1180;51.438;6.978;2023-03-26T11:42:30;1.30;;;0.73;;
2338;SDS011;1180;51.438;6.978;2023-03-26T11:44:57;1.63;;;0.90;;
2338;SDS011;1180;51.438;6.978;2023-03-26T11:50:34;1.27;;;0.93;;
2338;SDS011;1180;51.438;6.978;2023-03-26T11:53:09;1.57;;;0.93;;
2338;SDS011;1180;51.438;6.978;2023-03-26T11:55:59;0.90;;;0.70;;
2338;SDS011;1180;51.438;6.978;2023-03-26T11:59:02;1.17;;;0.73;;
2338;SDS011;1180;51.438;6.978;2023-03-26T12:04:43;1.43;;;0.80;;
2338;SDS011;1180;51.438;6.978;2023-03-26T12:07:22;1.10;;;0.93;;
2338;SDS011;1180;51.438;6.978;2023-03-26T12:09:58;1.43;;;0.97;;
2338;SDS011;1180;51.438;6.978;2023-03-26T12:12:27;1.10;;;0.83;;
2338;SDS011;1180;51.438;6.978;2023-03-26T12:14:55;1.10;;;0.80;;
2338;SDS011;1180;51.438;6.978;2023-03-26T12:17:32;1.70;;;0.80;;
2338;SDS011;1180;51.438;6.978;2023-03-26T12:20:00;1.47;;;1.37;;
2338;SDS011;1180;51.438;6.978;2023-03-26T12:30:21;1.70;;;0.80;;
2338;SDS011;1180;51.438;6.978;2023-03-26T12:32:49;1.37;;;0.80;;
2338;SDS011;1180;51.438;6.978;2023-03-26T12:35:18;1.97;;;0.97;;
2338;SDS011;1180;51.438;6.978;2023-03-26T12:37:50;0.90;;;0.80;;
2338;SDS011;1180;51.438;6.978;2023-03-26T12:40:32;1.67;;;0.83;;
2338;SDS011;1180;51.438;6.978;2023-03-26T12:43:01;1.10;;;0.90;;
2338;SDS011;1180;51.438;6.978;2023-03-26T12:45:39;0.93;;;0.77;;
2338;SDS011;1180;51.438;6.978;2023-03-26T12:48:08;1.13;;;0.90;;
2338;SDS011;1180;51.438;6.978;2023-03-26T12:53:49;1.20;;;1.00;;
2338;SDS011;1180;51.438;6.978;2023-03-26T12:56:50;0.83;;;0.70;;
2338;SDS011;1180;51.438;6.978;2023-03-26T12:59:38;0.90;;;0.70;;
2338;SDS011;1180;51.438;6.978;2023-03-26T13:13:45;1.27;;;0.70;;
2338;SDS011;1180;51.438;6.978;2023-03-26T13:18:53;1.33;;;0.87;;
2338;SDS011;1180;51.438;6.978;2023-03-26T13:24:27;1.13;;;0.70;;
2338;SDS011;1180;51.438;6.978;2023-03-26T13:27:11;0.80;;;0.57;;
2338;SDS011;1180;51.438;6.978;2023-03-26T13:32:55;1.43;;;1.00;;
2338;SDS011;1180;51.438;6.978;2023-03-26T13:38:36;1.93;;;1.00;;
2338;SDS011;1180;51.438;6.978;2023-03-26T13:41:18;1.13;;;0.80;;
2338;SDS011;1180;51.438;6.978;2023-03-26T13:49:26;1.30;;;0.80;;
2338;SDS011;1180;51.438;6.978;2023-03-26T13:52:09;1.00;;;0.80;;
2338;SDS011;1180;51.438;6.978;2023-03-26T13:57:15;1.00;;;0.73;;
2338;SDS011;1180;51.438;6.978;2023-03-26T14:05:06;1.00;;;0.70;;
2338;SDS011;1180;51.438;6.978;2023-03-26T14:10:28;1.07;;;0.80;;
2338;SDS011;1180;51.438;6.978;2023-03-26T14:13:01;1.20;;;0.70;;
2338;SDS011;1180;51.438;6.978;2023-03-26T14:15:43;1.03;;;0.70;;
2338;SDS011;1180;51.438;6.978;2023-03-26T14:21:48;1.47;;;1.00;;
2338;SDS011;1180;51.438;6.978;2023-03-26T14:30:40;1.00;;;0.80;;
2338;SDS011;1180;51.438;6.978;2023-03-26T14:39:03;2.10;;;1.10;;
2338;SDS011;1180;51.438;6.978;2023-03-26T14:41:43;1.10;;;0.80;;
2338;SDS011;1180;51.438;6.978;2023-03-26T14:55:19;1.60;;;1.03;;
2338;SDS011;1180;51.438;6.978;2023-03-26T15:04:04;1.10;;;0.97;;
2338;SDS011;1180;51.438;6.978;2023-03-26T15:17:21;2.00;;;1.60;;
2338;SDS011;1180;51.438;6.978;2023-03-26T15:25:43;4.60;;;2.77;;
2338;SDS011;1180;51.438;6.978;2023-03-26T15:28:43;1.73;;;1.63;;
2338;SDS011;1180;51.438;6.978;2023-03-26T15:37:41;3.50;;;2.40;;
2338;SDS011;1180;51.438;6.978;2023-03-26T15:50:36;2.97;;;1.63;;
2338;SDS011;1180;51.438;6.978;2023-03-26T15:56:29;5.50;;;2.13;;
2338;SDS011;1180;51.438;6.978;2023-03-26T16:04:23;3.73;;;1.73;;
2338;SDS011;1180;51.438;6.978;2023-03-26T16:15:12;4.20;;;3.07;;
2338;SDS011;1180;51.438;6.978;2023-03-26T16:20:44;3.70;;;3.27;;
2338;SDS011;1180;51.438;6.978;2023-03-26T16:26:18;16.17;;;7.03;;
2338;SDS011;1180;51.438;6.978;2023-03-26T16:31:18;15.73;;;6.87;;
2338;SDS011;1180;51.438;6.978;2023-03-26T16:33:57;26.23;;;6.67;;
2338;SDS011;1180;51.438;6.978;2023-03-26T16:44:11;15.43;;;6.10;;
2338;SDS011;1180;51.438;6.978;2023-03-26T16:54:47;12.07;;;5.37;;
2338;SDS011;1180;51.438;6.978;2023-03-26T16:57:27;14.70;;;5.67;;
2338;SDS011;1180;51.438;6.978;2023-03-26T17:05:48;18.33;;;6.73;;
2338;SDS011;1180;51.438;6.978;2023-03-26T17:08:19;14.63;;;5.73;;
2338;SDS011;1180;51.438;6.978;2023-03-26T17:14:28;11.90;;;5.23;;
2338;SDS011;1180;51.438;6.978;2023-03-26T17:22:41;14.40;;;5.23;;
2338;SDS011;1180;51.438;6.978;2023-03-26T17:28:06;9.63;;;4.10;;
2338;SDS011;1180;51.438;6.978;2023-03-26T17:33:30;13.07;;;6.10;;
2338;SDS011;1180;51.438;6.978;2023-03-26T17:41:01;7.73;;;4.50;;
2338;SDS011;1180;51.438;6.978;2023-03-26T17:46:04;14.33;;;5.70;;
2338;SDS011;1180;51.438;6.978;2023-03-26T17:48:46;12.40;;;5.63;;
2338;SDS011;1180;51.438;6.978;2023-03-26T17:51:41;11.10;;;5.60;;
2338;SDS011;1180;51.438;6.978;2023-03-26T17:56:59;12.57;;;5.07;;
2338;SDS011;1180;51.438;6.978;2023-03-26T17:59:30;8.00;;;4.60;;
2338;SDS011;1180;51.438;6.978;2023-03-26T18:02:00;9.73;;;3.97;;
2338;SDS011;1180;51.438;6.978;2023-03-26T18:04:36;9.60;;;4.30;;
2338;SDS011;1180;51.438;6.978;2023-03-26T18:07:12;9.87;;;3.57;;
2338;SDS011;1180;51.438;6.978;2023-03-26T18:18:12;11.07;;;4.73;;
2338;SDS011;1180;51.438;6.978;2023-03-26T18:20:44;14.30;;;5.63;;
2338;SDS011;1180;51.438;6.978;2023-03-26T18:23:25;11.80;;;4.67;;
2338;SDS011;1180;51.438;6.978;2023-03-26T18:26:12;10.13;;;3.93;;
2338;SDS011;1180;51.438;6.978;2023-03-26T18:28:48;13.83;;;4.10;;
2338;SDS011;1180;51.438;6.978;2023-03-26T18:31:24;12.03;;;5.13;;
2338;SDS011;1180;51.438;6.978;2023-03-26T18:33:54;10.73;;;4.77;;
2338;SDS011;1180;51.438;6.978;2023-03-26T18:36:23;20.83;;;4.80;;
2338;SDS011;1180;51.438;6.978;2023-03-26T18:38:54;10.77;;;4.27;;
2338;SDS011;1180;51.438;6.978;2023-03-26T18:41:25;6.40;;;3.50;;
2338;SDS011;1180;51.438;6.978;2023-03-26T18:43:55;10.30;;;5.10;;
2338;SDS011;1180;51.438;6.978;2023-03-26T18:46:25;15.93;;;4.93;;
2338;SDS011;1180;51.438;6.978;2023-03-26T18:48:51;11.67;;;3.50;;
2338;SDS011;1180;51.438;6.978;2023-03-26T18:51:18;6.23;;;2.90;;
2338;SDS011;1180;51.438;6.978;2023-03-26T18:53:51;13.67;;;3.80;;
2338;SDS011;1180;51.438;6.978;2023-03-26T18:56:35;17.63;;;4.73;;
2338;SDS011;1180;51.438;6.978;2023-03-26T18:59:04;10.63;;;3.20;;
2338;SDS011;1180;51.438;6.978;2023-03-26T19:01:43;11.90;;;2.70;;
2338;SDS011;1180;51.438;6.978;2023-03-26T19:04:11;7.87;;;3.07;;
2338;SDS011;1180;51.438;6.978;2023-03-26T19:06:37;10.23;;;3.80;;
2338;SDS011;1180;51.438;6.978;2023-03-26T19:09:05;9.90;;;2.33;;
2338;SDS011;1180;51.438;6.978;2023-03-26T19:11:38;10.83;;;3.60;;
2338;SDS011;1180;51.438;6.978;2023-03-26T19:14:14;10.73;;;3.63;;
2338;SDS011;1180;51.438;6.978;2023-03-26T19:16:42;7.90;;;2.70;;
2338;SDS011;1180;51.438;6.978;2023-03-26T19:19:17;12.20;;;3.20;;
2338;SDS011;1180;51.438;6.978;2023-03-26T19:21:47;9.70;;;2.97;;
2338;SDS011;1180;51.438;6.978;2023-03-26T19:24:13;13.30;;;3.90;;
2338;SDS011;1180;51.438;6.978;2023-03-26T19:26:40;10.13;;;3.20;;
2338;SDS011;1180;51.438;6.978;2023-03-26T19:29:07;8.83;;;4.30;;
2338;SDS011;1180;51.438;6.978;2023-03-26T19:31:37;6.40;;;2.87;;
2338;SDS011;1180;51.438;6.978;2023-03-26T19:34:22;10.53;;;3.07;;
2338;SDS011;1180;51.438;6.978;2023-03-26T19:39:25;10.20;;;3.07;;
2338;SDS011;1180;51.438;6.978;2023-03-26T19:42:20;10.80;;;2.53;;
2338;SDS011;1180;51.438;6.978;2023-03-26T19:44:53;14.33;;;2.60;;
2338;SDS011;1180;51.438;6.978;2023-03-26T19:47:22;9.13;;;3.97;;
2338;SDS011;1180;51.438;6.978;2023-03-26T19:49:53;14.43;;;3.00;;
2338;SDS011;1180;51.438;6.978;2023-03-26T19:52:22;7.27;;;2.97;;
2338;SDS011;1180;51.438;6.978;2023-03-26T19:54:59;14.90;;;3.33;;
2338;SDS011;1180;51.438;6.978;2023-03-26T19:57:30;24.80;;;4.67;;
2338;SDS011;1180;51.438;6.978;2023-03-26T19:59:56;13.33;;;3.17;;
2338;SDS011;1180;51.438;6.978;2023-03-26T20:02:22;10.83;;;3.03;;
2338;SDS011;1180;51.438;6.978;2023-03-26T20:04:48;10.17;;;3.10;;
2338;SDS011;1180;51.438;6.978;2023-03-26T20:07:15;6.57;;;3.00;;
2338;SDS011;1180;51.438;6.978;2023-03-26T20:09:43;12.90;;;2.20;;
2338;SDS011;1180;51.438;6.978;2023-03-26T20:12:09;11.03;;;3.30;;
2338;SDS011;1180;51.438;6.978;2023-03-26T20:14:35;8.23;;;3.40;;
2338;SDS011;1180;51.438;6.978;2023-03-26T20:17:01;10.30;;;3.73;;
2338;SDS011;1180;51.438;6.978;2023-03-26T20:19:26;9.63;;;2.70;;
2338;SDS011;1180;51.438;6.978;2023-03-26T20:21:53;10.23;;;2.63;;
2338;SDS011;1180;51.438;6.978;2023-03-26T20:24:19;6.80;;;3.07;;
2338;SDS011;1180;51.438;6.978;2023-03-26T20:26:45;10.13;;;3.27;;
2338;SDS011;1180;51.438;6.978;2023-03-26T20:29:11;6.37;;;2.27;;
2338;SDS011;1180;51.438;6.978;2023-03-26T20:31:38;11.17;;;4.63;;
2338;SDS011;1180;51.438;6.978;2023-03-26T20:34:07;11.20;;;3.20;;
2338;SDS011;1180;51.438;6.978;2023-03-26T20:36:47;10.13;;;2.77;;
2338;SDS011;1180;51.438;6.978;2023-03-26T20:39:18;4.17;;;2.03;;
2338;SDS011;1180;51.438;6.978;2023-03-26T20:41:45;10.93;;;2.50;;
2338;SDS011;1180;51.438;6.978;2023-03-26T20:44:13;7.30;;;2.43;;
2338;SDS011;1180;51.438;6.978;2023-03-26T20:46:41;8.37;;;2.67;;
2338;SDS011;1180;51.438;6.978;2023-03-26T20:49:08;10.33;;;3.47;;
2338;SDS011;1180;51.438;6.978;2023-03-26T20:51:34;10.00;;;2.50;;
2338;SDS011;1180;51.438;6.978;2023-03-26T20:54:02;9.80;;;2.60;;
2338;SDS011;1180;51.438;6.978;2023-03-26T20:56:32;11.97;;;3.00;;
2338;SDS011;1180;51.438;6.978;2023-03-26T20:58:59;10.27;;;3.00;;
2338;SDS011;1180;51.438;6.978;2023-03-26T21:01:24;8.90;;;2.50;;
2338;SDS011;1180;51.438;6.978;2023-03-26T21:03:49;9.00;;;2.33;;
2338;SDS011;1180;51.438;6.978;2023-03-26T21:06:15;12.23;;;4.03;;
2338;SDS011;1180;51.438;6.978;2023-03-26T21:08:41;11.23;;;3.23;;
2338;SDS011;1180;51.438;6.978;2023-03-26T21:11:19;7.60;;;2.40;;
2338;SDS011;1180;51.438;6.978;2023-03-26T21:16:46;7.65;;;2.25;;
2338;SDS011;1180;51.438;6.978;2023-03-26T21:19:12;8.50;;;2.37;;
2338;SDS011;1180;51.438;6.978;2023-03-26T21:21:47;4.38;;;2.10;;
2338;SDS011;1180;51.438;6.978;2023-03-26T21:27:15;5.03;;;1.83;;
2338;SDS011;1180;51.438;6.978;2023-03-26T21:29:51;6.83;;;2.93;;
2338;SDS011;1180;51.438;6.978;2023-03-26T21:32:18;7.55;;;2.88;;
2338;SDS011;1180;51.438;6.978;2023-03-26T21:34:44;11.55;;;3.10;;
2338;SDS011;1180;51.438;6.978;2023-03-26T21:37:11;8.35;;;3.10;;
2338;SDS011;1180;51.438;6.978;2023-03-26T21:39:36;12.93;;;2.50;;
2338;SDS011;1180;51.438;6.978;2023-03-26T21:42:02;11.70;;;3.70;;
2338;SDS011;1180;51.438;6.978;2023-03-26T21:44:27;7.50;;;2.80;;
2338;SDS011;1180;51.438;6.978;2023-03-26T21:46:53;6.90;;;2.40;;
2338;SDS011;1180;51.438;6.978;2023-03-26T21:49:19;8.70;;;2.67;;
2338;SDS011;1180;51.438;6.978;2023-03-26T21:51:44;10.90;;;3.00;;
2338;SDS011;1180;51.438;6.978;2023-03-26T21:54:19;8.67;;;2.67;;
2338;SDS011;1180;51.438;6.978;2023-03-26T22:02:38;13.63;;;3.83;;